Time;durP1;ratioP1;P1;durP2;ratioP2;P2;SDS_P1;SDS_P2;PMS_P1;PMS_P2;Temp;Humidity;BMP_temperature;BMP_pressure;BME280_temperature;BME280_humidity;BME280_pressure;Samples;Min_cycle;Max_cycle;Signal;HPM_P1;HPM_P2
2021/07/21 00:04:33;;;;;;;24.50;10.95;;;;;5.50;101496.00;;;;5046782;28;20048;-70
2021/07/21 00:10:25;;;;;;;19.88;11.60;;;;;5.40;101485.00;;;;5046987;28;20105;-72
2021/07/21 00:22:33;;;;;;;20.15;12.07;;;;;5.50;101471.00;;;;5033863;28;20454;-71
2021/07/21 00:29:09;;;;;;;17.70;11.00;;;;;5.40;101476.00;;;;5046323;28;20040;-73
2021/07/21 00:40:50;;;;;;;15.60;10.93;;;;;5.40;101502.00;;;;5046345;28;20106;-73
2021/07/21 00:43:17;;;;;;;15.15;11.48;;;;;5.40;101473.00;;;;5045376;28;20029;-71
2021/07/21 00:45:44;;;;;;;22.92;15.45;;;;;5.50;101508.00;;;;5045679;28;20115;-72
2021/07/21 00:48:11;;;;;;;26.13;14.80;;;;;5.50;101506.00;;;;5045681;28;20056;-70
2021/07/21 00:50:37;;;;;;;39.95;15.63;;;;;5.50;101502.00;;;;5046164;28;20041;-71
2021/07/21 00:53:04;;;;;;;24.60;13.73;;;;;5.40;101507.00;;;;5046557;28;20057;-73
2021/07/21 00:55:31;;;;;;;16.70;12.80;;;;;5.30;101526.00;;;;5045716;28;20029;-72
2021/07/21 00:57:58;;;;;;;24.70;12.07;;;;;5.30;101525.00;;;;5046194;28;20028;-70
2021/07/21 01:00:25;;;;;;;20.77;14.55;;;;;5.40;101498.00;;;;5045891;28;20053;-73
2021/07/21 01:02:53;;;;;;;20.83;12.85;;;;;5.40;101520.00;;;;5045850;28;20025;-72
2021/07/21 01:05:29;;;;;;;27.05;12.98;;;;;5.30;101508.00;;;;5046068;28;20093;-72
2021/07/21 01:07:56;;;;;;;18.52;12.38;;;;;5.20;101517.00;;;;5045973;28;20480;-71
2021/07/21 01:10:27;;;;;;;19.60;13.57;;;;;5.10;101522.00;;;;5046217;28;20025;-71
2021/07/21 01:13:10;;;;;;;37.17;20.10;;;;;5.10;101511.00;;;;5045962;28;20524;-72
2021/07/21 01:15:55;;;;;;;21.83;15.77;;;;;5.10;101527.00;;;;5046629;28;20041;-71
2021/07/21 01:18:28;;;;;;;20.27;14.48;;;;;5.00;101514.00;;;;5045511;28;20032;-72
2021/07/21 01:21:16;;;;;;;25.00;15.13;;;;;4.90;101511.00;;;;5046241;28;20029;-70
2021/07/21 01:23:45;;;;;;;19.48;12.10;;;;;4.90;101506.00;;;;5047803;28;20116;-72
2021/07/21 01:26:33;;;;;;;20.50;12.60;;;;;4.90;101520.00;;;;5049563;28;20029;-71
2021/07/21 01:29:02;;;;;;;17.58;10.93;;;;;4.90;101526.00;;;;5037518;28;20073;-72
2021/07/21 01:31:36;;;;;;;27.13;11.45;;;;;5.00;101519.00;;;;5049869;28;20044;-72
2021/07/21 01:34:04;;;;;;;26.45;12.43;;;;;5.00;101523.00;;;;5049892;28;20029;-70
2021/07/21 01:36:36;;;;;;;26.55;14.25;;;;;4.90;101515.00;;;;5049304;28;20057;-72
2021/07/21 01:39:08;;;;;;;22.90;12.70;;;;;4.90;101527.00;;;;5049593;28;20044;-71
2021/07/21 01:41:38;;;;;;;25.65;15.70;;;;;4.90;101524.00;;;;5049173;28;20021;-70
2021/07/21 01:44:16;;;;;;;33.70;15.80;;;;;4.80;101535.00;;;;5048986;28;20522;-72
2021/07/21 01:46:44;;;;;;;26.90;16.95;;;;;4.80;101516.00;;;;5049505;28;20112;-72
2021/07/21 01:49:12;;;;;;;23.67;15.55;;;;;4.90;101518.00;;;;5049865;28;20036;-72
2021/07/21 01:51:44;;;;;;;27.25;15.88;;;;;4.90;101515.00;;;;5048726;28;20386;-72
2021/07/21 01:54:11;;;;;;;36.05;22.90;;;;;4.80;101522.00;;;;5049404;28;20112;-71
2021/07/21 01:56:38;;;;;;;50.40;26.85;;;;;4.80;101511.00;;;;5049148;28;20037;-70
2021/07/21 01:59:07;;;;;;;49.40;26.00;;;;;4.80;101527.00;;;;5048449;28;20110;-72
2021/07/21 02:01:34;;;;;;;43.55;26.88;;;;;4.90;101526.00;;;;5048980;28;20048;-72
2021/07/21 02:04:04;;;;;;;31.45;22.13;;;;;4.90;101517.00;;;;5049240;28;20102;-71
2021/07/21 02:06:32;;;;;;;36.00;20.73;;;;;4.80;101537.00;;;;5048747;28;20032;-72
2021/07/21 02:09:00;;;;;;;33.90;19.92;;;;;4.80;101535.00;;;;5048569;28;20268;-70
2021/07/21 02:11:28;;;;;;;24.63;16.33;;;;;4.80;101521.00;;;;5049386;28;20036;-72
2021/07/21 02:14:00;;;;;;;21.88;15.55;;;;;4.80;101528.00;;;;5048685;28;20032;-71
2021/07/21 02:16:27;;;;;;;32.17;19.77;;;;;4.70;101515.00;;;;5048636;28;20041;-72
2021/07/21 02:19:01;;;;;;;38.72;21.52;;;;;4.70;101525.00;;;;5048313;28;20457;-70
2021/07/21 02:21:29;;;;;;;32.20;22.27;;;;;4.50;101519.00;;;;5048268;28;20774;-72
2021/07/21 02:23:56;;;;;;;29.90;19.92;;;;;4.40;101526.00;;;;5048455;28;20037;-71
2021/07/21 02:26:23;;;;;;;43.08;21.73;;;;;4.40;101518.00;;;;5047129;28;20040;-72
2021/07/21 02:28:50;;;;;;;28.90;19.73;;;;;4.40;101513.00;;;;5048343;28;20416;-71
2021/07/21 02:31:26;;;;;;;31.35;19.80;;;;;4.40;101508.00;;;;5048758;28;20036;-71
2021/07/21 02:34:02;;;;;;;33.97;21.80;;;;;4.30;101527.00;;;;5047988;28;20399;-71
2021/07/21 02:36:30;;;;;;;36.03;25.15;;;;;4.30;101525.00;;;;5049058;28;20399;-71
2021/07/21 02:38:59;;;;;;;38.95;25.00;;;;;4.20;101524.00;;;;5048183;28;20033;-70
2021/07/21 02:41:26;;;;;;;25.15;18.52;;;;;4.30;101531.00;;;;5048211;28;20057;-70
2021/07/21 02:43:53;;;;;;;35.40;20.23;;;;;4.20;101523.00;;;;5047954;28;20037;-70
2021/07/21 02:46:19;;;;;;;32.58;22.52;;;;;4.20;101511.00;;;;5048507;28;20036;-73
2021/07/21 02:48:47;;;;;;;34.15;23.48;;;;;4.10;101507.00;;;;5048373;28;20080;-70
2021/07/21 02:51:27;;;;;;;34.80;23.58;;;;;4.10;101523.00;;;;5047935;28;20117;-71
2021/07/21 02:54:02;;;;;;;31.65;22.38;;;;;4.20;101496.00;;;;5048037;28;20079;-72
2021/07/21 02:56:33;;;;;;;39.17;23.50;;;;;4.20;101527.00;;;;5048250;28;20028;-70
2021/07/21 02:59:05;;;;;;;42.10;28.17;;;;;4.20;101507.00;;;;5048462;28;20118;-72
2021/07/21 03:01:33;;;;;;;;;;;;;4.20;101522.00;;;;5048594;28;20037;-72
2021/07/21 03:04:03;;;;;;;41.83;27.90;;;;;4.20;101505.00;;;;5048320;28;19951;-71
2021/07/21 03:06:32;;;;;;;43.88;29.15;;;;;4.20;101508.00;;;;5048125;28;20449;-70
2021/07/21 03:09:00;;;;;;;33.90;25.25;;;;;4.30;101501.00;;;;5047639;28;20045;-72
2021/07/21 03:11:26;;;;;;;37.40;24.95;;;;;4.30;101504.00;;;;5048082;28;20067;-69
2021/07/21 03:14:00;;;;;;;38.63;26.52;;;;;4.30;101501.00;;;;5048103;28;20041;-71
2021/07/21 03:16:32;;;;;;;30.23;23.35;;;;;4.30;101500.00;;;;5047763;28;20029;-72
2021/07/21 03:19:05;;;;;;;38.53;25.17;;;;;4.40;101493.00;;;;5047452;28;20061;-72
2021/07/21 03:21:33;;;;;;;39.60;24.48;;;;;4.40;101482.00;;;;5047289;28;20029;-71
2021/07/21 03:24:02;;;;;;;33.92;23.67;;;;;4.40;101505.00;;;;5047433;28;20623;-70
2021/07/21 03:26:32;;;;;;;41.78;26.30;;;;;4.40;101489.00;;;;5047341;28;20033;-69
2021/07/21 03:29:01;;;;;;;34.22;25.15;;;;;4.40;101495.00;;;;5047991;28;20060;-72
2021/07/21 03:31:27;;;;;;;35.63;23.25;;;;;4.40;101488.00;;;;5047818;28;20079;-70
2021/07/21 03:34:16;;;;;;;32.15;22.42;;;;;4.30;101493.00;;;;5048017;28;20039;-72
2021/07/21 03:36:48;;;;;;;36.13;25.23;;;;;4.30;101502.00;;;;5047089;28;20038;-72
2021/07/21 03:39:16;;;;;;;35.40;25.27;;;;;4.30;101506.00;;;;5046899;28;20504;-70
2021/07/21 03:41:43;;;;;;;34.50;25.08;;;;;4.30;101491.00;;;;5047503;28;20492;-72
2021/07/21 03:44:12;;;;;;;36.90;22.83;;;;;4.40;101483.00;;;;5046939;28;20079;-71
2021/07/21 03:46:40;;;;;;;33.15;21.90;;;;;4.40;101491.00;;;;5045947;28;20587;-72
2021/07/21 03:49:08;;;;;;;32.72;22.15;;;;;4.40;101483.00;;;;5047179;28;20017;-71
2021/07/21 03:51:37;;;;;;;37.90;22.60;;;;;4.30;101462.00;;;;5046560;28;20445;-70
2021/07/21 03:54:06;;;;;;;33.80;21.40;;;;;4.30;101475.00;;;;5046581;28;20132;-72
2021/07/21 03:56:35;;;;;;;33.17;21.60;;;;;4.30;101479.00;;;;5047013;28;20445;-70
2021/07/21 03:59:04;;;;;;;29.58;21.80;;;;;4.20;101476.00;;;;5047294;28;20120;-71
2021/07/21 04:01:31;;;;;;;31.60;21.58;;;;;4.10;101469.00;;;;5046903;28;20025;-70
2021/07/21 04:04:00;;;;;;;31.20;21.25;;;;;4.10;101448.00;;;;5046385;28;20033;-72
2021/07/21 04:06:33;;;;;;;31.23;20.00;;;;;4.20;101464.00;;;;5046980;28;20076;-70
2021/07/21 04:09:05;;;;;;;28.17;19.73;;;;;4.10;101485.00;;;;5046399;28;20104;-73
2021/07/21 04:11:34;;;;;;;28.45;19.17;;;;;4.10;101492.00;;;;5046746;28;20078;-71
2021/07/21 04:14:03;;;;;;;27.23;19.90;;;;;4.00;101485.00;;;;5047062;28;20059;-72
2021/07/21 04:16:33;;;;;;;32.22;20.17;;;;;3.90;101470.00;;;;5046629;28;20033;-70
2021/07/21 04:19:01;;;;;;;32.47;19.23;;;;;3.90;101451.00;;;;5046226;28;20056;-70
2021/07/21 04:21:29;;;;;;;31.08;19.48;;;;;3.80;101459.00;;;;5045155;28;20037;-71
2021/07/21 04:23:57;;;;;;;27.83;18.88;;;;;3.80;101453.00;;;;5047100;28;20029;-72
2021/07/21 04:26:27;;;;;;;28.38;18.25;;;;;3.70;101420.00;;;;5046409;28;20028;-72
2021/07/21 04:28:55;;;;;;;26.42;18.58;;;;;3.60;101449.00;;;;5046657;28;20043;-72
2021/07/21 04:31:28;;;;;;;28.80;18.27;;;;;3.70;101447.00;;;;5045874;28;20053;-71
2021/07/21 04:33:56;;;;;;;30.00;19.77;;;;;3.60;101433.00;;;;5046237;28;20029;-70
2021/07/21 04:36:23;;;;;;;28.30;17.77;;;;;3.50;101452.00;;;;5046215;28;20037;-70
2021/07/21 04:38:51;;;;;;;23.20;17.27;;;;;3.50;101440.00;;;;5046260;28;20464;-72
2021/07/21 04:41:21;;;;;;;29.08;18.13;;;;;3.50;101456.00;;;;5046346;28;20083;-70
2021/07/21 04:43:48;;;;;;;27.77;18.08;;;;;3.40;101446.00;;;;5045635;28;20100;-72
2021/07/21 04:46:16;;;;;;;24.23;17.40;;;;;3.40;101448.00;;;;5046098;28;20392;-70
2021/07/21 04:48:44;;;;;;;31.05;18.23;;;;;3.50;101445.00;;;;5046701;28;20052;-73
2021/07/21 04:51:12;;;;;;;31.20;18.65;;;;;3.40;101436.00;;;;5046483;28;20028;-71
2021/07/21 04:53:39;;;;;;;25.63;17.58;;;;;3.50;101460.00;;;;5044935;28;20389;-70
2021/07/21 04:56:05;;;;;;;30.33;18.38;;;;;3.50;101455.00;;;;5045830;28;20036;-70
2021/07/21 04:58:32;;;;;;;22.55;16.48;;;;;3.60;101440.00;;;;5047993;28;20025;-70
2021/07/21 05:00:59;;;;;;;25.70;17.65;;;;;3.50;101444.00;;;;5049900;28;20036;-71
2021/07/21 05:03:25;;;;;;;34.90;19.80;;;;;3.50;101429.00;;;;5049815;28;20553;-71
2021/07/21 05:05:52;;;;;;;26.40;18.23;;;;;3.40;101443.00;;;;5049882;28;20037;-72
2021/07/21 05:08:19;;;;;;;26.67;17.50;;;;;3.30;101426.00;;;;5049951;28;20037;-70
2021/07/21 05:10:45;;;;;;;27.33;19.05;;;;;3.30;101422.00;;;;5050100;28;20056;-71
2021/07/21 05:13:12;;;;;;;23.08;17.58;;;;;3.30;101424.00;;;;5050002;28;20025;-72
2021/07/21 05:15:44;;;;;;;20.70;16.48;;;;;3.30;101429.00;;;;5049286;28;20126;-72
2021/07/21 05:18:12;;;;;;;27.67;18.60;;;;;3.30;101422.00;;;;5050314;28;20032;-69
2021/07/21 05:20:39;;;;;;;33.67;18.95;;;;;3.20;101434.00;;;;5049439;28;20404;-72
2021/07/21 05:23:06;;;;;;;31.00;19.65;;;;;3.20;101422.00;;;;5049628;28;20148;-71
2021/07/21 05:25:36;;;;;;;33.67;19.92;;;;;3.10;101410.00;;;;5049288;28;20033;-71
2021/07/21 05:28:05;;;;;;;25.80;17.77;;;;;3.10;101407.00;;;;5049411;28;21176;-71
2021/07/21 05:30:31;;;;;;;30.58;19.63;;;;;3.10;101423.00;;;;5049284;28;20496;-72
2021/07/21 05:32:58;;;;;;;33.15;20.38;;;;;3.00;101404.00;;;;5049224;28;20028;-70
2021/07/21 05:35:25;;;;;;;29.05;18.67;;;;;3.00;101401.00;;;;5049349;28;20100;-73
2021/07/21 05:37:52;;;;;;;28.10;18.63;;;;;2.90;101411.00;;;;5048800;28;20033;-69
2021/07/21 05:40:19;;;;;;;27.27;18.30;;;;;2.90;101412.00;;;;5049117;28;20551;-69
2021/07/21 05:42:46;;;;;;;25.15;18.77;;;;;2.90;101407.00;;;;5049747;28;20144;-70
2021/07/21 05:45:12;;;;;;;26.77;17.05;;;;;2.90;101411.00;;;;5049437;28;20065;-70
2021/07/21 05:47:39;;;;;;;24.17;17.50;;;;;2.90;101406.00;;;;5047712;28;20037;-72
2021/07/21 05:50:09;;;;;;;22.65;17.65;;;;;2.90;101419.00;;;;5049318;28;20103;-69
2021/07/21 05:52:35;;;;;;;25.88;19.38;;;;;2.80;101407.00;;;;5048622;28;20032;-72
2021/07/21 05:55:02;;;;;;;31.73;19.88;;;;;2.90;101393.00;;;;5048468;28;20182;-71
2021/07/21 05:57:29;;;;;;;31.63;19.20;;;;;2.90;101391.00;;;;5048760;28;20040;-69
2021/07/21 05:59:56;;;;;;;26.50;19.70;;;;;2.90;101402.00;;;;5048552;28;20053;-70
2021/07/21 06:02:23;;;;;;;23.15;18.30;;;;;3.00;101387.00;;;;5048832;28;20024;-71
2021/07/21 06:04:51;;;;;;;21.90;17.65;;;;;3.00;101414.00;;;;5048754;28;20124;-72
2021/07/21 06:07:17;;;;;;;26.40;17.30;;;;;3.10;101396.00;;;;5048379;28;20036;-69
2021/07/21 06:09:44;;;;;;;26.48;20.10;;;;;3.10;101403.00;;;;5048156;28;20074;-71
2021/07/21 06:12:11;;;;;;;25.58;17.42;;;;;3.10;101402.00;;;;5048999;28;20057;-71
2021/07/21 06:14:37;;;;;;;32.85;18.17;;;;;3.10;101403.00;;;;5049307;28;20029;-69
2021/07/21 06:17:04;;;;;;;28.58;19.95;;;;;3.10;101401.00;;;;5048502;28;20029;-70
2021/07/21 06:19:33;;;;;;;26.58;18.77;;;;;3.00;101400.00;;;;5046855;28;20451;-71
2021/07/21 06:22:04;;;;;;;31.10;19.48;;;;;2.90;101411.00;;;;5048785;28;20029;-72
2021/07/21 06:24:30;;;;;;;32.40;20.50;;;;;3.00;101394.00;;;;5048249;28;20078;-72
2021/07/21 06:26:59;;;;;;;25.33;19.77;;;;;2.90;101382.00;;;;5048701;28;20392;-71
2021/07/21 06:29:26;;;;;;;31.33;20.35;;;;;2.80;101380.00;;;;5048785;28;20035;-71
2021/07/21 06:31:53;;;;;;;33.25;22.48;;;;;2.80;101397.00;;;;5048184;28;20036;-72
2021/07/21 06:34:19;;;;;;;32.13;22.20;;;;;2.70;101371.00;;;;5048069;28;20093;-71
2021/07/21 06:36:46;;;;;;;28.05;21.05;;;;;2.80;101389.00;;;;5048459;28;20032;-70
2021/07/21 06:39:13;;;;;;;30.17;21.95;;;;;2.70;101387.00;;;;5046872;28;20025;-70
2021/07/21 06:41:39;;;;;;;33.92;23.02;;;;;2.70;101406.00;;;;5048425;28;20042;-72
2021/07/21 06:44:06;;;;;;;32.13;23.10;;;;;2.60;101378.00;;;;5048369;28;20660;-71
2021/07/21 06:46:33;;;;;;;32.88;22.58;;;;;2.70;101374.00;;;;5048408;28;20025;-69
2021/07/21 06:49:00;;;;;;;36.67;22.13;;;;;2.70;101404.00;;;;5048154;28;20030;-71
2021/07/21 06:51:27;;;;;;;26.80;21.20;;;;;2.60;101385.00;;;;5048916;28;20025;-73
2021/07/21 06:53:54;;;;;;;33.63;22.88;;;;;2.70;101385.00;;;;5047869;28;20507;-72
2021/07/21 06:56:21;;;;;;;29.60;22.35;;;;;2.80;101394.00;;;;5046736;28;20037;-70
2021/07/21 06:58:50;;;;;;;34.50;24.10;;;;;2.80;101394.00;;;;5047452;28;20504;-72
2021/07/21 07:01:19;;;;;;;31.50;22.25;;;;;2.70;101374.00;;;;5047514;28;20033;-71
2021/07/21 07:03:47;;;;;;;34.83;21.98;;;;;2.50;101376.00;;;;5047865;28;20075;-71
2021/07/21 07:06:15;;;;;;;35.53;22.55;;;;;2.60;101386.00;;;;5048221;28;20029;-70
2021/07/21 07:08:41;;;;;;;27.88;21.60;;;;;2.70;101390.00;;;;5047318;28;20033;-71
2021/07/21 07:11:09;;;;;;;41.30;21.73;;;;;2.70;101390.00;;;;5047539;28;20068;-72
2021/07/21 07:13:37;;;;;;;31.88;20.75;;;;;2.70;101393.00;;;;5047050;28;20492;-68
2021/07/21 07:16:05;;;;;;;34.03;21.45;;;;;2.70;101402.00;;;;5045967;28;20468;-71
2021/07/21 07:18:32;;;;;;;30.25;21.17;;;;;2.70;101406.00;;;;5047501;28;20500;-72
2021/07/21 07:20:58;;;;;;;29.25;21.25;;;;;2.80;101385.00;;;;5047169;28;20036;-70
2021/07/21 07:23:25;;;;;;;30.23;21.27;;;;;2.80;101375.00;;;;5047062;28;20575;-73
2021/07/21 07:25:52;;;;;;;32.47;23.75;;;;;2.80;101398.00;;;;5047580;28;20083;-73
2021/07/21 07:28:18;;;;;;;34.40;22.77;;;;;2.70;101404.00;;;;5047311;28;20337;-71
2021/07/21 07:30:45;;;;;;;27.45;20.27;;;;;2.60;101405.00;;;;5048094;28;20064;-73
2021/07/21 07:33:11;;;;;;;29.92;21.10;;;;;2.50;101412.00;;;;5047547;28;20024;-70
2021/07/21 07:35:40;;;;;;;39.40;22.05;;;;;2.50;101397.00;;;;5047726;28;20052;-72
2021/07/21 07:38:12;;;;;;;29.02;20.85;;;;;2.40;101421.00;;;;5046565;28;20033;-71
2021/07/21 07:40:40;;;;;;;29.13;20.50;;;;;2.30;101381.00;;;;5047288;28;20040;-70
2021/07/21 07:43:08;;;;;;;31.05;20.25;;;;;2.20;101381.00;;;;5046707;28;20033;-71
2021/07/21 07:45:36;;;;;;;26.08;20.65;;;;;2.20;101410.00;;;;5047279;28;20025;-71
2021/07/21 07:48:03;;;;;;;30.02;19.45;;;;;2.20;101417.00;;;;5046571;28;20029;-72
2021/07/21 07:50:30;;;;;;;28.95;19.42;;;;;2.30;101408.00;;;;5046818;28;20135;-70
2021/07/21 07:52:57;;;;;;;37.72;22.15;;;;;2.20;101383.00;;;;5047057;28;20069;-71
2021/07/21 07:55:24;;;;;;;27.13;19.88;;;;;2.10;101396.00;;;;5046668;28;20033;-72
2021/07/21 07:57:51;;;;;;;28.20;19.60;;;;;2.10;101398.00;;;;5047428;28;20024;-72
2021/07/21 08:00:19;;;;;;;28.08;19.88;;;;;2.10;101416.00;;;;5046695;28;20432;-70
2021/07/21 08:02:45;;;;;;;30.52;20.08;;;;;2.10;101402.00;;;;5047569;28;21177;-70
2021/07/21 08:05:12;;;;;;;29.45;20.42;;;;;2.10;101417.00;;;;5046710;28;20428;-72
2021/07/21 08:07:39;;;;;;;27.65;20.23;;;;;2.10;101407.00;;;;5046869;28;20033;-71
2021/07/21 08:10:11;;;;;;;29.15;20.88;;;;;2.00;101416.00;;;;5046666;28;20043;-72
2021/07/21 08:12:38;;;;;;;33.58;21.45;;;;;2.00;101402.00;;;;5046500;28;20029;-72
2021/07/21 08:15:05;;;;;;;36.30;22.67;;;;;2.10;101430.00;;;;5046710;28;20033;-72
2021/07/21 08:17:31;;;;;;;33.17;19.60;;;;;2.10;101412.00;;;;5046609;28;20055;-72
2021/07/21 08:19:58;;;;;;;28.92;21.00;;;;;2.00;101399.00;;;;5046805;28;20455;-72
2021/07/21 08:22:24;;;;;;;45.00;21.63;;;;;2.10;101396.00;;;;5047186;28;20504;-72
2021/07/21 08:24:51;;;;;;;31.88;22.77;;;;;2.10;101411.00;;;;5046167;28;20025;-73
2021/07/21 08:27:17;;;;;;;37.20;23.35;;;;;2.10;101412.00;;;;5046273;28;20083;-72
2021/07/21 08:29:44;;;;;;;34.15;24.95;;;;;2.20;101404.00;;;;5046747;28;20037;-71
2021/07/21 08:32:11;;;;;;;40.72;23.85;;;;;2.10;101409.00;;;;5046728;28;20036;-71
2021/07/21 08:34:37;;;;;;;39.20;23.88;;;;;2.00;101383.00;;;;5050177;28;20033;-70
2021/07/21 08:37:04;;;;;;;37.38;21.92;;;;;1.90;101400.00;;;;5050154;28;20084;-70
2021/07/21 08:39:31;;;;;;;32.38;23.23;;;;;1.90;101387.00;;;;5050293;28;20040;-72
2021/07/21 08:41:57;;;;;;;34.38;23.73;;;;;1.90;101412.00;;;;5050826;28;20031;-71
2021/07/21 08:44:24;;;;;;;42.72;22.70;;;;;2.00;101395.00;;;;5050666;28;20037;-72
2021/07/21 08:46:51;;;;;;;30.17;23.63;;;;;2.20;101407.00;;;;5050457;28;20079;-71
2021/07/21 08:49:17;;;;;;;42.67;26.75;;;;;2.10;101394.00;;;;5049982;28;20029;-70
2021/07/21 08:51:45;;;;;;;45.10;22.88;;;;;2.00;101405.00;;;;5050021;28;20400;-69
2021/07/21 08:54:15;;;;;;;35.92;22.75;;;;;2.00;101419.00;;;;5050149;28;20403;-70
2021/07/21 08:56:43;;;;;;;39.30;21.15;;;;;1.80;101399.00;;;;5049988;28;20032;-70
2021/07/21 08:59:10;;;;;;;67.68;23.17;;;;;1.80;101398.00;;;;5050031;28;20508;-72
2021/07/21 09:01:37;;;;;;;29.70;21.45;;;;;1.70;101395.00;;;;5050209;28;20025;-70
2021/07/21 09:04:04;;;;;;;28.73;19.80;;;;;1.70;101418.00;;;;5049690;28;20099;-72
2021/07/21 09:06:30;;;;;;;26.40;17.45;;;;;1.70;101411.00;;;;5049310;28;20029;-70
2021/07/21 09:08:57;;;;;;;25.58;17.27;;;;;1.70;101427.00;;;;5050487;28;20071;-72
2021/07/21 09:11:24;;;;;;;29.30;18.65;;;;;1.60;101400.00;;;;5050232;28;20041;-69
2021/07/21 09:13:51;;;;;;;26.23;17.55;;;;;1.50;101430.00;;;;5050086;28;20387;-70
2021/07/21 09:16:18;;;;;;;22.70;15.75;;;;;1.30;101415.00;;;;5049542;28;20033;-71
2021/07/21 09:18:53;;;;;;;27.38;17.55;;;;;1.30;101407.00;;;;5049927;28;20406;-70
2021/07/21 09:21:22;;;;;;;20.20;15.35;;;;;1.20;101440.00;;;;5049969;28;20042;-71
2021/07/21 09:23:52;;;;;;;22.70;15.45;;;;;1.10;101432.00;;;;5049551;28;20037;-70
2021/07/21 09:26:24;;;;;;;25.08;15.60;;;;;1.10;101440.00;;;;5049392;28;20091;-71
2021/07/21 09:28:57;;;;;;;18.95;14.23;;;;;1.00;101423.00;;;;5049636;28;20488;-70
2021/07/21 09:31:35;;;;;;;17.13;14.77;;;;;1.00;101441.00;;;;5049055;28;20562;-72
2021/07/21 09:34:20;;;;;;;21.02;14.95;;;;;1.00;101418.00;;;;5050312;28;20071;-70
2021/07/21 09:36:47;;;;;;;20.65;15.25;;;;;0.90;101432.00;;;;5049201;28;20384;-72
2021/07/21 09:39:15;;;;;;;20.05;15.35;;;;;1.10;101431.00;;;;5049521;28;20403;-71
2021/07/21 09:41:53;;;;;;;27.30;15.70;;;;;1.10;101438.00;;;;5049343;28;20048;-72
2021/07/21 09:44:33;;;;;;;21.98;14.98;;;;;0.90;101456.00;;;;5049474;28;20033;-72
2021/07/21 09:47:21;;;;;;;24.00;15.90;;;;;0.90;101443.00;;;;5048996;28;20055;-72
2021/07/21 09:49:50;;;;;;;22.75;16.90;;;;;1.00;101462.00;;;;5048876;28;20420;-70
2021/07/21 09:52:21;;;;;;;40.22;19.02;;;;;1.10;101459.00;;;;5048453;28;20025;-72
2021/07/21 09:55:07;;;;;;;25.58;18.52;;;;;1.00;101469.00;;;;5049423;28;20032;-71
2021/07/21 09:57:34;;;;;;;27.15;17.63;;;;;0.90;101464.00;;;;5048331;28;20413;-72
2021/07/21 10:00:23;;;;;;;31.17;17.33;;;;;1.00;101466.00;;;;5049030;28;20056;-71
2021/07/21 10:03:05;;;;;;;24.88;16.73;;;;;0.90;101442.00;;;;5048535;28;20025;-71
2021/07/21 10:05:31;;;;;;;25.70;15.90;;;;;0.80;101454.00;;;;5048203;28;20036;-71
2021/07/21 10:08:06;;;;;;;22.92;16.92;;;;;0.80;101449.00;;;;5047952;28;20120;-71
2021/07/21 10:10:33;;;;;;;26.77;16.70;;;;;1.00;101460.00;;;;5047999;28;20122;-72
2021/07/21 10:13:05;;;;;;;24.58;16.35;;;;;1.10;101491.00;;;;5048091;28;20033;-73
2021/07/21 10:15:32;;;;;;;20.38;14.55;;;;;1.20;101497.00;;;;5048385;28;20126;-73
2021/07/21 10:18:10;;;;;;;20.30;15.32;;;;;1.10;101479.00;;;;5048539;28;20036;-72
2021/07/21 10:20:38;;;;;;;22.20;16.30;;;;;1.00;101466.00;;;;5048242;28;20475;-73
2021/07/21 10:23:06;;;;;;;21.38;15.95;;;;;0.90;101492.00;;;;5048022;28;20025;-73
2021/07/21 10:25:32;;;;;;;25.88;16.42;;;;;0.80;101510.00;;;;5048641;28;20410;-73
2021/07/21 10:27:59;;;;;;;22.27;15.32;;;;;0.90;101482.00;;;;5048653;28;20502;-72
2021/07/21 10:30:29;;;;;;;23.60;15.75;;;;;0.90;101511.00;;;;5047926;28;20381;-73
2021/07/21 10:32:56;;;;;;;21.75;15.70;;;;;0.90;101514.00;;;;5048130;28;20024;-71
2021/07/21 10:35:28;;;;;;;33.85;18.25;;;;;1.00;101487.00;;;;5048019;28;20056;-69
2021/07/21 10:37:55;;;;;;;25.50;18.17;;;;;1.10;101508.00;;;;5047290;28;20032;-74
2021/07/21 10:40:24;;;;;;;24.75;17.33;;;;;1.20;101511.00;;;;5047833;28;20029;-71
2021/07/21 10:42:53;;;;;;;36.97;17.95;;;;;1.30;101502.00;;;;5048275;28;20033;-72
2021/07/21 10:45:23;;;;;;;29.45;18.17;;;;;1.40;101511.00;;;;5048199;28;20029;-74
2021/07/21 10:48:00;;;;;;;41.40;22.02;;;;;1.80;101462.00;;;;5047639;28;20029;-73
2021/07/21 10:50:50;;;;;;;40.10;22.85;;;;;2.60;101431.00;;;;5047483;28;20582;-71
2021/07/21 10:59:11;;;;;;;23.33;13.82;;;;;7.30;101336.00;;;;5048149;28;20519;-74
2021/07/21 11:01:50;;;;;;;27.40;12.88;;;;;8.00;101397.00;;;;5048279;28;20134;-72
2021/07/21 11:04:17;;;;;;;30.10;12.65;;;;;7.10;101407.00;;;;5047675;28;20543;-71
2021/07/21 11:06:50;;;;;;;27.30;11.10;;;;;6.90;101433.00;;;;5047784;28;20032;-71
2021/07/21 11:09:19;;;;;;;15.10;9.77;;;;;6.60;101412.00;;;;5047032;28;20416;-69
2021/07/21 11:11:49;;;;;;;16.48;9.93;;;;;6.30;101427.00;;;;5047823;28;20056;-71
2021/07/21 11:14:27;;;;;;;24.17;10.15;;;;;5.80;101457.00;;;;5047478;28;20040;-71
2021/07/21 11:17:08;;;;;;;37.55;13.52;;;;;5.50;101478.00;;;;5047050;28;20103;-69
2021/07/21 11:19:44;;;;;;;14.07;9.75;;;;;5.40;101462.00;;;;5047344;28;20158;-72
2021/07/21 11:22:20;;;;;;;18.75;10.05;;;;;6.80;101414.00;;;;5047733;28;20480;-72
2021/07/21 11:25:12;;;;;;;55.85;17.40;;;;;8.00;101366.00;;;;5047427;28;20037;-71
2021/07/21 11:27:49;;;;;;;30.55;10.85;;;;;7.10;101413.00;;;;5047043;28;20041;-70
2021/07/21 11:30:55;;;;;;;17.02;10.00;;;;;9.60;101364.00;;;;5047601;28;20033;-72
2021/07/21 11:33:50;;;;;;;29.15;10.52;;;;;9.80;101397.00;;;;5047473;28;20036;-72
2021/07/21 11:36:46;;;;;;;20.27;12.20;;;;;10.60;101358.00;;;;5046692;28;20044;-70
2021/07/21 11:39:34;;;;;;;20.05;8.45;;;;;11.60;101326.00;;;;5047085;28;20545;-70
2021/07/21 11:42:02;;;;;;;12.45;8.73;;;;;11.10;101334.00;;;;5046784;28;20039;-70
2021/07/21 11:44:36;;;;;;;25.52;8.93;;;;;11.50;101348.00;;;;5045958;28;20046;-71
2021/07/21 11:47:05;;;;;;;19.20;8.90;;;;;12.10;101331.00;;;;5047199;28;20029;-72
2021/07/21 11:49:33;;;;;;;21.15;9.35;;;;;12.30;101317.00;;;;5045738;28;20036;-70
2021/07/21 11:52:06;;;;;;;18.75;11.95;;;;;12.50;101340.00;;;;5047015;28;20028;-71
2021/07/21 11:54:38;;;;;;;17.38;9.25;;;;;12.80;101338.00;;;;5046872;28;20059;-71
2021/07/21 11:57:06;;;;;;;19.10;8.40;;;;;12.60;101369.00;;;;5046597;28;20514;-73
2021/07/21 11:59:35;;;;;;;11.80;7.90;;;;;12.80;101328.00;;;;5046953;28;20057;-72
2021/07/21 12:02:09;;;;;;;10.07;8.50;;;;;13.40;101335.00;;;;5046653;28;20103;-72
2021/07/21 12:04:38;;;;;;;11.55;9.23;;;;;14.00;101336.00;;;;5046553;28;20037;-70
2021/07/21 12:07:06;;;;;;;8.75;7.90;;;;;14.30;101376.00;;;;5045861;28;20025;-72
2021/07/21 12:09:36;;;;;;;27.92;9.23;;;;;14.50;101393.00;;;;5046703;28;20388;-71
2021/07/21 12:12:06;;;;;;;12.93;8.05;;;;;14.90;101411.00;;;;5046793;28;20094;-73
2021/07/21 12:14:33;;;;;;;11.00;7.22;;;;;15.20;101423.00;;;;5046023;28;20148;-70
2021/07/21 12:17:14;;;;;;;10.75;6.57;;;;;16.20;101430.00;;;;5046715;28;20044;-71
2021/07/21 12:19:43;;;;;;;10.77;6.25;;;;;16.10;101435.00;;;;5046203;28;20508;-73
2021/07/21 12:22:13;;;;;;;12.90;6.93;;;;;15.90;101413.00;;;;5046385;28;20033;-72
2021/07/21 12:24:51;;;;;;;26.02;8.02;;;;;16.50;101472.00;;;;5046132;28;20503;-73
2021/07/21 12:27:31;;;;;;;10.25;7.45;;;;;15.60;101401.00;;;;5046427;28;20430;-74
2021/07/21 12:30:07;;;;;;;12.90;7.97;;;;;15.80;101419.00;;;;5046459;28;20033;-73
2021/07/21 12:32:34;;;;;;;12.65;7.45;;;;;16.10;101430.00;;;;5045902;28;20025;-72
2021/07/21 12:35:01;;;;;;;18.58;8.45;;;;;16.40;101429.00;;;;5046762;28;20484;-71
2021/07/21 12:37:36;;;;;;;13.50;7.47;;;;;16.80;101435.00;;;;5046572;28;20051;-73
2021/07/21 12:40:10;;;;;;;8.15;7.35;;;;;17.00;101411.00;;;;5046217;28;20519;-71
2021/07/21 12:42:37;;;;;;;20.45;8.27;;;;;17.30;101414.00;;;;5046335;28;20547;-71
2021/07/21 12:45:07;;;;;;;13.48;9.55;;;;;17.60;101427.00;;;;5045703;28;20025;-73
2021/07/21 12:47:36;;;;;;;16.20;7.63;;;;;17.80;101431.00;;;;5046728;28;20075;-73